createdAt,value
2018-06-15T00:00:06.245Z,101481.58
2018-06-15T00:02:35.388Z,101481.23
2018-06-15T00:05:03.704Z,101484.84
2018-06-15T00:07:32.398Z,101484.22
2018-06-15T00:10:01.417Z,101488.38
2018-06-15T00:12:29.746Z,101490.13
2018-06-15T00:14:58.053Z,101486.66
2018-06-15T00:17:26.301Z,101491.53
2018-06-15T00:19:54.605Z,101492.96
2018-06-15T00:22:22.954Z,101487.28
2018-06-15T00:24:51.234Z,101494.77
2018-06-15T00:27:19.529Z,101487.63
2018-06-15T00:29:47.812Z,101490.41
2018-06-15T00:32:16.163Z,101491.24
2018-06-15T00:34:44.456Z,101492.33
2018-06-15T00:37:12.827Z,101489.88
2018-06-15T00:39:41.117Z,101497.02
2018-06-15T00:42:09.393Z,101499.15
2018-06-15T00:44:37.775Z,101502.77
2018-06-15T00:47:06.256Z,101508.28
2018-06-15T00:49:34.534Z,101502.61
2018-06-15T00:52:02.821Z,101505.11
2018-06-15T00:54:31.097Z,101502.77
2018-06-15T00:57:10.665Z,101500.62
2018-06-15T00:59:38.966Z,101504.72
2018-06-15T01:02:07.229Z,101508.55
2018-06-15T01:04:35.517Z,101503.03
2018-06-15T01:07:03.809Z,101507.16
2018-06-15T01:09:32.091Z,101502.59
2018-06-15T01:12:00.396Z,101498.98
2018-06-15T01:14:28.681Z,101505.98
2018-06-15T01:16:56.976Z,101502.77
2018-06-15T01:19:25.366Z,101508.03
2018-06-15T01:21:53.659Z,101509.70
2018-06-15T01:24:21.917Z,101510.50
2018-06-15T01:26:50.198Z,101507.55
2018-06-15T01:29:18.449Z,101512.13
2018-06-15T01:31:46.758Z,101510.33
2018-06-15T01:34:15.189Z,101505.75
2018-06-15T01:36:43.513Z,101504.70
2018-06-15T01:39:12.247Z,101506.72
2018-06-15T01:41:40.537Z,101508.70
2018-06-15T01:44:08.794Z,101514.62
2018-06-15T01:46:37.101Z,101514.23
2018-06-15T01:49:05.422Z,101519.58
2018-06-15T01:51:33.701Z,101523.27
2018-06-15T01:54:01.953Z,101521.37
2018-06-15T01:56:30.257Z,101525.45
2018-06-15T01:58:58.653Z,101521.93
2018-06-15T02:01:27.016Z,101532.44
2018-06-15T02:03:55.226Z,101527.12
2018-06-15T02:06:23.489Z,101528.30
2018-06-15T02:08:51.789Z,101534.34
2018-06-15T02:11:20.049Z,101531.37
2018-06-15T02:13:48.333Z,101538.65
2018-06-15T02:16:16.609Z,101539.19
2018-06-15T02:18:44.917Z,101539.67
2018-06-15T02:21:13.165Z,101535.59
2018-06-15T02:23:41.500Z,101533.52
2018-06-15T02:26:09.757Z,101535.74
2018-06-15T02:28:38.037Z,101533.66
2018-06-15T02:31:06.618Z,101539.72
2018-06-15T02:33:34.913Z,101539.29
2018-06-15T02:36:03.236Z,101538.37
2018-06-15T02:38:31.529Z,101535.83
2018-06-15T02:40:59.817Z,101540.31
2018-06-15T02:43:28.148Z,101548.45
2018-06-15T02:45:56.481Z,101549.66
2018-06-15T02:48:24.741Z,101551.70
2018-06-15T02:50:53.045Z,101548.75
2018-06-15T02:53:21.306Z,101551.87
2018-06-15T02:55:49.630Z,101548.83
2018-06-15T02:58:17.891Z,101553.27
2018-06-15T03:00:46.161Z,101556.30
2018-06-15T03:03:14.413Z,101558.80
2018-06-15T03:05:42.693Z,101565.01
2018-06-15T03:08:10.957Z,101559.48
2018-06-15T03:10:39.241Z,101562.17
2018-06-15T03:13:07.510Z,101561.97
2018-06-15T03:15:35.807Z,101564.38
2018-06-15T03:18:04.053Z,101565.36
2018-06-15T03:20:32.349Z,101568.08
2018-06-15T03:23:00.597Z,101570.83
2018-06-15T03:25:28.890Z,101570.01
2018-06-15T03:27:57.145Z,101579.98
2018-06-15T03:30:25.413Z,101581.43
2018-06-15T03:32:53.684Z,101591.06
2018-06-15T03:35:21.933Z,101593.11
2018-06-15T03:37:50.310Z,101595.39
2018-06-15T03:40:18.573Z,101596.80
2018-06-15T03:42:46.989Z,101599.21
2018-06-15T03:45:15.237Z,101601.45
2018-06-15T03:47:43.545Z,101605.32
2018-06-15T03:50:11.799Z,101607.72
2018-06-15T03:52:40.070Z,101606.34
2018-06-15T03:55:08.321Z,101598.55
2018-06-15T03:57:36.602Z,101608.25
2018-06-15T04:00:04.905Z,101615.14
2018-06-15T04:02:33.206Z,101614.75
2018-06-15T04:05:01.509Z,101612.27
2018-06-15T04:07:29.793Z,101621.33
2018-06-15T04:09:58.035Z,101618.93
2018-06-15T04:12:26.321Z,101622.92
2018-06-15T04:14:54.573Z,101620.07
2018-06-15T04:17:22.841Z,101624.08
2018-06-15T04:19:51.134Z,101633.03
2018-06-15T04:22:19.385Z,101633.20
2018-06-15T04:24:47.891Z,101634.00
2018-06-15T04:27:16.129Z,101633.91
2018-06-15T04:29:44.404Z,101639.91
2018-06-15T04:32:12.665Z,101639.30
2018-06-15T04:34:40.948Z,101644.94
2018-06-15T04:37:09.225Z,101645.19
2018-06-15T04:39:37.509Z,101648.44
2018-06-15T04:42:05.769Z,101650.22
2018-06-15T04:44:34.071Z,101646.50
2018-06-15T04:47:02.327Z,101643.76
2018-06-15T04:49:30.585Z,101652.38
2018-06-15T04:51:58.851Z,101649.88
2018-06-15T04:54:27.100Z,101649.73
2018-06-15T04:56:55.369Z,101656.09
2018-06-15T04:59:23.622Z,101655.34
2018-06-15T05:01:51.889Z,101657.40
2018-06-15T05:04:20.143Z,101656.04
2018-06-15T05:06:48.585Z,101647.69
2018-06-15T05:09:16.870Z,101650.80
2018-06-15T05:11:45.102Z,101659.70
2018-06-15T05:14:13.339Z,101660.18
2018-06-15T05:16:41.600Z,101660.16
2018-06-15T05:19:09.840Z,101663.30
2018-06-15T05:21:38.153Z,101663.11
2018-06-15T05:24:06.559Z,101673.00
2018-06-15T05:26:34.820Z,101667.75
2018-06-15T05:29:03.085Z,101676.53
2018-06-15T05:31:31.385Z,101669.70
2018-06-15T05:33:59.649Z,101675.63
2018-06-15T05:36:27.889Z,101673.87
2018-06-15T05:38:56.157Z,101676.45
2018-06-15T05:41:24.403Z,101679.39
2018-06-15T05:43:52.673Z,101683.33
2018-06-15T05:46:20.912Z,101688.11
2018-06-15T05:48:49.208Z,101688.20
2018-06-15T05:51:17.454Z,101693.92
2018-06-15T05:53:45.733Z,101693.58
2018-06-15T05:56:14.072Z,101699.54
2018-06-15T05:58:42.356Z,101701.77
2018-06-15T06:01:10.605Z,101709.04
2018-06-15T06:03:38.867Z,101706.19
2018-06-15T06:06:07.145Z,101700.72
2018-06-15T06:08:35.385Z,101706.27
2018-06-15T06:11:03.653Z,101708.39
2018-06-15T06:13:31.896Z,101703.83
2018-06-15T06:16:00.165Z,101709.96
2018-06-15T06:18:28.422Z,101719.56
2018-06-15T06:20:56.818Z,101717.31
2018-06-15T06:23:25.070Z,101710.22
2018-06-15T06:25:53.333Z,101710.11
2018-06-15T06:28:21.643Z,101710.35
2018-06-15T06:30:49.937Z,101711.59
2018-06-15T06:33:18.185Z,101707.92
2018-06-15T06:35:46.481Z,101715.58
2018-06-15T06:38:14.732Z,101715.05
2018-06-15T06:40:43.022Z,101719.59
2018-06-15T06:43:11.309Z,101718.03
2018-06-15T06:45:39.575Z,101717.72
2018-06-15T06:48:07.853Z,101731.07
2018-06-15T06:50:36.150Z,101723.79
2018-06-15T06:53:04.413Z,101719.88
2018-06-15T06:55:32.668Z,101728.11
2018-06-15T06:58:00.933Z,101725.11
2018-06-15T07:00:29.201Z,101727.09
2018-06-15T07:02:57.805Z,101728.03
2018-06-15T07:05:26.065Z,101730.82
2018-06-15T07:07:54.381Z,101734.06
2018-06-15T07:10:22.657Z,101729.44
2018-06-15T07:12:51.025Z,101730.95
2018-06-15T07:15:19.290Z,101733.87
2018-06-15T07:17:47.576Z,101737.19
2018-06-15T07:20:15.924Z,101737.06
2018-06-15T07:22:44.221Z,101740.98
2018-06-15T07:25:12.460Z,101735.53
2018-06-15T07:27:40.744Z,101751.59
2018-06-15T07:30:09.034Z,101747.94
2018-06-15T07:32:37.352Z,101747.23
2018-06-15T07:35:05.801Z,101751.13
2018-06-15T07:37:34.181Z,101753.94
2018-06-15T07:40:02.466Z,101754.45
2018-06-15T07:42:30.767Z,101751.89
2018-06-15T07:44:59.076Z,101754.25
2018-06-15T07:47:27.347Z,101750.75
2018-06-15T07:49:55.657Z,101749.77
2018-06-15T07:52:23.912Z,101761.22
2018-06-15T07:54:52.188Z,101757.17
2018-06-15T07:57:20.450Z,101760.20
2018-06-15T07:59:48.758Z,101757.03
2018-06-15T08:02:17.025Z,101755.76
2018-06-15T08:04:45.305Z,101763.17
2018-06-15T08:07:13.553Z,101762.77
2018-06-15T08:09:41.834Z,101759.05
2018-06-15T08:12:10.149Z,101756.10
2018-06-15T08:14:38.386Z,101761.59
2018-06-15T08:17:06.663Z,101760.23
2018-06-15T08:19:34.933Z,101768.51
2018-06-15T08:22:03.225Z,101778.67
2018-06-15T08:24:31.489Z,101767.74
2018-06-15T08:26:59.749Z,101772.71
2018-06-15T08:29:27.980Z,101778.03
2018-06-15T08:31:56.361Z,101778.67
2018-06-15T08:34:24.601Z,101780.11
2018-06-15T08:36:52.876Z,101773.70
2018-06-15T08:39:21.129Z,101774.03
2018-06-15T08:41:49.429Z,101775.72
2018-06-15T08:44:17.707Z,101771.36
2018-06-15T08:46:45.968Z,101773.37
2018-06-15T08:49:14.289Z,101771.69
2018-06-15T08:51:42.554Z,101772.72
2018-06-15T08:54:10.823Z,101773.37
2018-06-15T08:56:39.049Z,101770.57
2018-06-15T08:59:07.329Z,101779.33
2018-06-15T09:01:35.637Z,101782.63
2018-06-15T09:04:03.961Z,101788.33
2018-06-15T09:06:32.213Z,101783.86
2018-06-15T09:09:00.486Z,101788.37
2018-06-15T09:11:28.889Z,101775.87
2018-06-15T09:13:57.175Z,101774.95
2018-06-15T09:16:25.418Z,101779.50
2018-06-15T09:18:53.685Z,101773.20
2018-06-15T09:21:21.920Z,101777.89
2018-06-15T09:23:50.241Z,101785.66
2018-06-15T09:26:18.489Z,101788.69
2018-06-15T09:28:46.809Z,101782.99
2018-06-15T09:31:15.092Z,101780.84
2018-06-15T09:33:43.417Z,101777.33
2018-06-15T09:36:11.660Z,101786.45
2018-06-15T09:38:40.033Z,101783.14
2018-06-15T09:41:08.337Z,101791.24
2018-06-15T09:43:36.649Z,101792.94
2018-06-15T09:46:04.919Z,101782.32
2018-06-15T09:48:33.160Z,101783.58
2018-06-15T09:51:01.435Z,101790.11
2018-06-15T09:53:29.680Z,101787.86
2018-06-15T09:55:57.942Z,101784.38
2018-06-15T09:58:26.755Z,101784.65
2018-06-15T10:01:00.290Z,101784.61
2018-06-15T10:03:28.546Z,101783.50
2018-06-15T10:05:57.364Z,101787.15
2018-06-15T10:08:25.602Z,101787.39
2018-06-15T10:10:53.861Z,101788.83
2018-06-15T10:13:22.094Z,101786.69
2018-06-15T10:15:50.390Z,101789.25
2018-06-15T10:18:18.649Z,101790.14
2018-06-15T10:20:46.949Z,101792.72
2018-06-15T10:23:15.189Z,101787.73
2018-06-15T10:25:43.497Z,101787.50
2018-06-15T10:28:11.725Z,101793.48
2018-06-15T10:30:40.303Z,101795.43
2018-06-15T10:33:09.248Z,101794.97
2018-06-15T10:35:37.645Z,101795.09
2018-06-15T10:38:05.953Z,101791.71
2018-06-15T10:40:34.235Z,101793.24
2018-06-15T10:43:02.493Z,101805.36
2018-06-15T10:45:30.780Z,101792.63
2018-06-15T10:47:59.034Z,101787.31
2018-06-15T10:50:27.285Z,101778.77
2018-06-15T10:52:55.813Z,101782.55
2018-06-15T10:55:24.057Z,101782.84
2018-06-15T10:57:52.333Z,101785.48
2018-06-15T11:00:20.681Z,101790.83
2018-06-15T11:02:48.948Z,101783.38
2018-06-15T11:05:17.381Z,101787.25
2018-06-15T11:07:45.726Z,101782.83
2018-06-15T11:10:14.232Z,101773.72
2018-06-15T11:12:42.500Z,101781.47
2018-06-15T11:15:10.934Z,101786.80
2018-06-15T11:17:39.221Z,101787.56
2018-06-15T11:20:07.473Z,101784.59
2018-06-15T11:22:35.714Z,101789.96
2018-06-15T11:25:03.997Z,101778.67
2018-06-15T11:27:32.232Z,101783.22
2018-06-15T11:30:00.476Z,101775.81
2018-06-15T11:32:28.734Z,101776.02
2018-06-15T11:34:56.993Z,101771.45
2018-06-15T11:37:25.234Z,101773.68
2018-06-15T11:39:53.493Z,101771.44
2018-06-15T11:42:21.735Z,101774.89
2018-06-15T11:44:50.032Z,101774.57
2018-06-15T11:47:18.289Z,101778.67
2018-06-15T11:49:46.720Z,101784.09
2018-06-15T11:52:14.954Z,101779.66
2018-06-15T11:54:43.265Z,101773.78
2018-06-15T11:57:11.517Z,101779.61
2018-06-15T11:59:39.745Z,101777.62
2018-06-15T12:02:08.261Z,101782.66
2018-06-15T12:04:36.501Z,101777.05
2018-06-15T12:07:04.761Z,101776.50
2018-06-15T12:09:33.001Z,101770.17
2018-06-15T12:12:01.266Z,101765.27
2018-06-15T12:14:29.501Z,101767.81
2018-06-15T12:16:57.770Z,101767.73
2018-06-15T12:19:26.008Z,101767.38
2018-06-15T12:21:54.284Z,101775.03
2018-06-15T12:24:22.524Z,101777.83
2018-06-15T12:26:50.814Z,101782.20
2018-06-15T12:29:19.053Z,101781.89
2018-06-15T12:31:47.354Z,101775.00
2018-06-15T12:34:15.612Z,101777.84
2018-06-15T12:36:43.850Z,101779.17
2018-06-15T12:39:12.111Z,101778.39
2018-06-15T12:41:40.536Z,101780.03
2018-06-15T12:44:08.896Z,101779.41
2018-06-15T12:46:37.138Z,101776.66
2018-06-15T12:49:05.904Z,101779.99
2018-06-15T12:51:34.150Z,101781.64
2018-06-15T12:54:02.446Z,101786.52
2018-06-15T12:56:30.676Z,101783.23
2018-06-15T12:58:58.952Z,101778.34
2018-06-15T13:01:27.194Z,101773.56
2018-06-15T13:03:55.508Z,101772.52
2018-06-15T13:06:23.741Z,101781.03
2018-06-15T13:08:52.021Z,101772.52
2018-06-15T13:11:20.269Z,101772.40
2018-06-15T13:13:48.596Z,101773.75
2018-06-15T13:16:16.857Z,101758.28
2018-06-15T13:18:45.637Z,101771.61
2018-06-15T13:21:13.889Z,101771.30
2018-06-15T13:23:42.260Z,101775.07
2018-06-15T13:26:10.511Z,101773.27
2018-06-15T13:28:38.751Z,101784.52
2018-06-15T13:31:07.173Z,101776.23
2018-06-15T13:33:35.465Z,101777.25
2018-06-15T13:36:03.755Z,101775.17
2018-06-15T13:38:32.011Z,101769.82
2018-06-15T13:41:01.370Z,101770.22
2018-06-15T13:43:29.643Z,101773.39
2018-06-15T13:45:57.921Z,101772.63
2018-06-15T13:48:26.190Z,101776.77
2018-06-15T13:50:54.469Z,101771.20
2018-06-15T13:53:22.728Z,101761.89
2018-06-15T13:55:51.005Z,101766.20
2018-06-15T13:58:19.264Z,101765.42
2018-06-15T14:00:47.541Z,101767.55
2018-06-15T14:03:15.786Z,101764.67
2018-06-15T14:05:44.064Z,101771.14
2018-06-15T14:08:12.501Z,101766.65
2018-06-15T14:10:40.780Z,101772.02
2018-06-15T14:13:09.020Z,101773.01
2018-06-15T14:15:37.546Z,101774.75
2018-06-15T14:18:05.827Z,101778.33
2018-06-15T14:20:34.077Z,101779.23
2018-06-15T14:23:02.365Z,101773.58
2018-06-15T14:25:30.634Z,101771.72
2018-06-15T14:27:58.901Z,101775.38
2018-06-15T14:30:27.293Z,101774.27
2018-06-15T14:32:55.607Z,101763.72
2018-06-15T14:35:23.836Z,101761.40
2018-06-15T14:37:52.147Z,101766.23
2018-06-15T14:40:20.389Z,101769.04
2018-06-15T14:42:48.649Z,101759.31
2018-06-15T14:45:16.898Z,101764.48
2018-06-15T14:47:45.161Z,101756.12
2018-06-15T14:50:13.424Z,101768.39
2018-06-15T14:52:41.690Z,101769.50
2018-06-15T14:55:09.931Z,101773.75
2018-06-15T14:57:38.225Z,101774.16
2018-06-15T15:00:06.648Z,101768.81
2018-06-15T15:02:34.924Z,101760.75
2018-06-15T15:05:03.333Z,101754.86
2018-06-15T15:07:31.565Z,101763.19
2018-06-15T15:09:59.943Z,101760.83
2018-06-15T15:12:28.184Z,101771.69
2018-06-15T15:14:56.508Z,101775.05
2018-06-15T15:17:24.741Z,101778.13
2018-06-15T15:19:53.003Z,101767.00
2018-06-15T15:22:21.283Z,101773.39
2018-06-15T15:24:49.701Z,101770.98
2018-06-15T15:27:17.934Z,101767.95
2018-06-15T15:29:46.229Z,101766.51
2018-06-15T15:32:14.484Z,101758.16
2018-06-15T15:34:42.722Z,101755.53
2018-06-15T15:37:10.992Z,101761.77
2018-06-15T15:39:39.229Z,101760.66
2018-06-15T15:42:07.494Z,101761.33
2018-06-15T15:44:35.794Z,101769.19
2018-06-15T15:47:04.049Z,101774.31
2018-06-15T15:49:33.180Z,101782.52
2018-06-15T15:52:01.490Z,101776.55
2018-06-15T15:54:29.752Z,101788.94
2018-06-15T15:56:58.121Z,101785.83
2018-06-15T15:59:26.356Z,101786.45
2018-06-15T16:01:54.649Z,101777.73
2018-06-15T16:04:22.896Z,101769.35
2018-06-15T16:06:51.300Z,101778.67
2018-06-15T16:09:19.581Z,101772.27
2018-06-15T16:11:47.888Z,101766.61
2018-06-15T16:14:16.327Z,101765.23
2018-06-15T16:16:44.560Z,101762.08
2018-06-15T16:19:12.829Z,101760.72
2018-06-15T16:21:41.118Z,101767.32
2018-06-15T16:24:09.392Z,101772.23
2018-06-15T16:26:37.641Z,101773.81
2018-06-15T16:29:06.044Z,101782.08
2018-06-15T16:31:34.313Z,101780.72
2018-06-15T16:34:02.606Z,101775.68
2018-06-15T16:36:30.885Z,101757.47
2018-06-15T16:38:59.353Z,101762.13
2018-06-15T16:41:27.609Z,101774.06
2018-06-15T16:43:55.882Z,101779.97
2018-06-15T16:46:24.133Z,101771.51
2018-06-15T16:48:52.428Z,101777.62
2018-06-15T16:51:20.770Z,101772.77
2018-06-15T16:53:49.078Z,101768.77
2018-06-15T16:56:17.317Z,101773.91
2018-06-15T16:58:45.584Z,101773.48
2018-06-15T17:01:13.857Z,101776.80
2018-06-15T17:03:42.137Z,101775.80
2018-06-15T17:06:10.441Z,101780.30
2018-06-15T17:08:38.689Z,101786.17
2018-06-15T17:11:06.945Z,101786.49
2018-06-15T17:13:35.193Z,101786.39
2018-06-15T17:16:03.549Z,101780.97
2018-06-15T17:18:31.885Z,101774.17
2018-06-15T17:21:00.161Z,101776.91
2018-06-15T17:23:28.418Z,101782.78
2018-06-15T17:25:56.689Z,101776.31
2018-06-15T17:28:25.032Z,101771.30
2018-06-15T17:30:53.293Z,101774.72
2018-06-15T17:33:21.557Z,101768.92
2018-06-15T17:35:49.813Z,101777.11
2018-06-15T17:38:18.052Z,101769.99
2018-06-15T17:40:46.424Z,101768.11
2018-06-15T17:43:14.763Z,101773.92
2018-06-15T17:45:43.001Z,101778.36
2018-06-15T17:48:11.259Z,101783.53
2018-06-15T17:50:39.520Z,101777.76
2018-06-15T17:53:07.785Z,101778.84
2018-06-15T17:55:36.037Z,101781.05
2018-06-15T17:58:04.331Z,101779.27
2018-06-15T18:00:32.564Z,101771.60
2018-06-15T18:03:00.909Z,101772.09
2018-06-15T18:05:29.148Z,101774.75
2018-06-15T18:07:57.601Z,101777.31
2018-06-15T18:10:25.845Z,101778.44
2018-06-15T18:12:54.114Z,101771.51
2018-06-15T18:15:22.356Z,101775.45
2018-06-15T18:17:50.625Z,101778.18
2018-06-15T18:20:18.908Z,101775.69
2018-06-15T18:22:47.181Z,101778.92
2018-06-15T18:25:15.417Z,101776.29
2018-06-15T18:27:43.653Z,101771.86
2018-06-15T18:30:11.921Z,101774.03
2018-06-15T18:32:40.189Z,101786.03
2018-06-15T18:35:08.448Z,101776.89
2018-06-15T18:37:36.697Z,101782.05
2018-06-15T18:40:05.161Z,101787.19
2018-06-15T18:42:33.409Z,101785.19
2018-06-15T18:45:01.674Z,101783.36
2018-06-15T18:47:29.945Z,101785.67
2018-06-15T18:49:58.224Z,101788.33
2018-06-15T18:52:26.481Z,101787.33
2018-06-15T18:54:54.973Z,101788.66
2018-06-15T18:57:23.214Z,101784.95
2018-06-15T18:59:51.481Z,101789.63
2018-06-15T19:02:19.713Z,101781.34
2018-06-15T19:04:47.970Z,101786.28
2018-06-15T19:07:16.214Z,101786.97
2018-06-15T19:09:44.475Z,101786.44
2018-06-15T19:12:12.805Z,101793.33
2018-06-15T19:14:41.072Z,101789.62
2018-06-15T19:17:09.317Z,101797.42
2018-06-15T19:19:37.585Z,101789.95
2018-06-15T19:22:05.829Z,101795.69
2018-06-15T19:24:34.113Z,101798.17
2018-06-15T19:27:02.352Z,101797.64
2018-06-15T19:29:30.590Z,101794.61
2018-06-15T19:31:58.885Z,101803.36
2018-06-15T19:34:27.128Z,101802.44
2018-06-15T19:36:55.392Z,101801.72
2018-06-15T19:39:23.669Z,101799.72
2018-06-15T19:41:51.940Z,101801.38
2018-06-15T19:44:20.189Z,101794.45
2018-06-15T19:46:48.453Z,101799.52
2018-06-15T19:49:16.700Z,101793.43
2018-06-15T19:51:45.041Z,101794.62
2018-06-15T19:54:13.285Z,101789.30
2018-06-15T19:56:41.565Z,101786.91
2018-06-15T19:59:09.810Z,101790.70
2018-06-15T20:01:38.090Z,101790.00
2018-06-15T20:04:06.405Z,101802.66
2018-06-15T20:06:34.677Z,101792.83
2018-06-15T20:09:02.962Z,101795.42
2018-06-15T20:11:31.238Z,101798.63
2018-06-15T20:13:59.501Z,101799.25
2018-06-15T20:16:27.749Z,101808.16
2018-06-15T20:18:56.021Z,101808.49
2018-06-15T20:21:24.264Z,101809.41
2018-06-15T20:23:52.625Z,101805.69
2018-06-15T20:26:20.877Z,101809.56
2018-06-15T20:28:49.154Z,101802.08
2018-06-15T20:31:17.394Z,101806.76
2018-06-15T20:33:45.685Z,101800.51
2018-06-15T20:36:14.047Z,101795.05
2018-06-15T20:38:43.105Z,101796.95
2018-06-15T20:41:11.597Z,101800.55
2018-06-15T20:43:39.880Z,101803.66
2018-06-15T20:46:08.216Z,101805.84
2018-06-15T20:48:36.469Z,101806.71
2018-06-15T20:51:04.846Z,101805.59
2018-06-15T20:53:33.101Z,101803.20
2018-06-15T20:56:01.373Z,101806.41
2018-06-15T20:58:29.670Z,101799.12
2018-06-15T21:00:57.937Z,101796.59
2018-06-15T21:03:26.250Z,101793.00
2018-06-15T21:05:54.546Z,101791.67
2018-06-15T21:08:22.787Z,101792.89
2018-06-15T21:10:51.061Z,101790.20
2018-06-15T21:13:19.364Z,101785.63
2018-06-15T21:15:47.631Z,101787.66
2018-06-15T21:18:15.870Z,101784.61
2018-06-15T21:20:44.145Z,101789.56
2018-06-15T21:23:13.369Z,101796.06
2018-06-15T21:25:41.689Z,101791.45
2018-06-15T21:28:09.947Z,101793.00
2018-06-15T21:30:38.220Z,101796.31
2018-06-15T21:33:06.497Z,101792.95
2018-06-15T21:35:34.774Z,101785.43
2018-06-15T21:38:03.046Z,101784.03
2018-06-15T21:40:31.280Z,101781.46
2018-06-15T21:42:59.559Z,101774.73
2018-06-15T21:45:27.871Z,101771.56
2018-06-15T21:47:56.154Z,101775.04
2018-06-15T21:50:24.558Z,101783.00
2018-06-15T21:52:52.825Z,101778.61
2018-06-15T21:55:21.226Z,101780.31
2018-06-15T21:57:49.507Z,101770.61
2018-06-15T22:00:17.748Z,101769.48
2018-06-15T22:02:46.025Z,101770.76
2018-06-15T22:05:14.273Z,101771.93
2018-06-15T22:07:42.569Z,101769.44
2018-06-15T22:10:10.809Z,101764.14
2018-06-15T22:12:39.235Z,101762.53
2018-06-15T22:15:07.657Z,101756.97
2018-06-15T22:17:35.994Z,101761.33
2018-06-15T22:20:04.269Z,101756.67
2018-06-15T22:22:32.517Z,101761.47
2018-06-15T22:25:00.815Z,101763.55
2018-06-15T22:27:29.062Z,101761.36
2018-06-15T22:29:57.357Z,101764.16
2018-06-15T22:32:25.622Z,101763.02
2018-06-15T22:34:53.890Z,101768.39
2018-06-15T22:37:22.129Z,101769.48
2018-06-15T22:39:50.398Z,101771.89
2018-06-15T22:42:18.628Z,101770.95
2018-06-15T22:44:46.893Z,101780.11
2018-06-15T22:47:15.969Z,101781.53
2018-06-15T22:49:44.313Z,101773.36
2018-06-15T22:52:12.553Z,101765.95
2018-06-15T22:54:41.551Z,101767.23
2018-06-15T22:57:09.789Z,101771.02
2018-06-15T22:59:38.053Z,101764.05
2018-06-15T23:02:06.297Z,101769.53
2018-06-15T23:04:34.813Z,101774.42
2018-06-15T23:07:03.060Z,101768.79
2018-06-15T23:09:31.621Z,101763.61
2018-06-15T23:11:59.869Z,101765.61
2018-06-15T23:14:28.112Z,101762.73
2018-06-15T23:16:56.389Z,101761.41
2018-06-15T23:19:24.663Z,101760.59
2018-06-15T23:21:52.928Z,101763.50
2018-06-15T23:24:21.173Z,101756.35
2018-06-15T23:26:49.434Z,101759.42
2018-06-15T23:29:17.682Z,101760.70
2018-06-15T23:31:45.949Z,101759.42
2018-06-15T23:34:14.242Z,101766.59
2018-06-15T23:36:42.582Z,101762.58
2018-06-15T23:39:10.966Z,101760.91
2018-06-15T23:41:39.373Z,101764.23
2018-06-15T23:44:07.620Z,101766.70
2018-06-15T23:46:35.909Z,101772.74
2018-06-15T23:49:04.178Z,101771.76
2018-06-15T23:51:32.427Z,101770.20
2018-06-15T23:54:00.689Z,101762.87
2018-06-15T23:56:28.932Z,101762.96
2018-06-15T23:58:57.210Z,101767.00
